sensor_id;sensor_type;location;lat;lon;timestamp;pressure;altitude;pressure_sealevel;temperature;humidity
29733;BME280;16643;43.158;25.302;2023-04-20T00:01:37;97602.34;;;11.02;100.00
29733;BME280;16643;43.158;25.302;2023-04-20T00:04:04;97576.84;;;10.90;100.00
29733;BME280;16643;43.158;25.302;2023-04-20T00:06:29;97618.25;;;11.16;100.00
29733;BME280;16643;43.158;25.302;2023-04-20T00:08:56;97617.06;;;11.03;100.00
29733;BME280;16643;43.158;25.302;2023-04-20T00:11:22;97628.72;;;11.15;100.00
29733;BME280;16643;43.158;25.302;2023-04-20T00:13:47;97599.03;;;10.99;100.00
29733;BME280;16643;43.158;25.302;2023-04-20T00:16:13;97610.69;;;11.10;100.00
29733;BME280;16643;43.158;25.302;2023-04-20T00:18:39;97619.28;;;11.12;100.00
29733;BME280;16643;43.158;25.302;2023-04-20T00:21:05;97604.28;;;10.97;100.00
29733;BME280;16643;43.158;25.302;2023-04-20T00:23:30;97597.28;;;10.99;100.00
29733;BME280;16643;43.158;25.302;2023-04-20T00:25:56;97598.44;;;10.92;100.00
29733;BME280;16643;43.158;25.302;2023-04-20T00:28:22;97585.03;;;10.81;100.00
29733;BME280;16643;43.158;25.302;2023-04-20T00:30:47;97599.13;;;10.96;100.00
29733;BME280;16643;43.158;25.302;2023-04-20T00:33:13;97612.81;;;11.01;100.00
29733;BME280;16643;43.158;25.302;2023-04-20T00:35:39;97595.09;;;10.88;100.00
29733;BME280;16643;43.158;25.302;2023-04-20T00:38:04;97590.63;;;10.92;100.00
29733;BME280;16643;43.158;25.302;2023-04-20T00:40:30;97613.06;;;10.95;100.00
29733;BME280;16643;43.158;25.302;2023-04-20T00:42:56;97605.28;;;10.95;100.00
29733;BME280;16643;43.158;25.302;2023-04-20T00:45:21;97605.91;;;11.00;100.00
29733;BME280;16643;43.158;25.302;2023-04-20T00:47:47;97579.50;;;10.88;100.00
29733;BME280;16643;43.158;25.302;2023-04-20T00:50:14;97587.31;;;10.88;100.00
29733;BME280;16643;43.158;25.302;2023-04-20T00:52:40;97633.69;;;10.99;100.00
29733;BME280;16643;43.158;25.302;2023-04-20T00:55:07;97600.25;;;10.90;100.00
29733;BME280;16643;43.158;25.302;2023-04-20T00:57:33;97612.81;;;11.01;100.00
29733;BME280;16643;43.158;25.302;2023-04-20T00:59:59;97597.47;;;10.95;100.00
29733;BME280;16643;43.158;25.302;2023-04-20T01:02:25;74395.91;;;-142.82;100.00
29733;BME280;16643;43.158;25.302;2023-04-20T01:04:52;97606.94;;;10.96;100.00
29733;BME280;16643;43.158;25.302;2023-04-20T01:07:18;97578.19;;;10.78;100.00
29733;BME280;16643;43.158;25.302;2023-04-20T01:09:43;97628.53;;;10.98;100.00
29733;BME280;16643;43.158;25.302;2023-04-20T01:12:10;97617.28;;;10.97;99.28
29733;BME280;16643;43.158;25.302;2023-04-20T01:14:36;97615.53;;;10.98;99.76
29733;BME280;16643;43.158;25.302;2023-04-20T01:17:01;97617.28;;;10.97;99.79
29733;BME280;16643;43.158;25.302;2023-04-20T01:19:31;97605.44;;;10.90;99.68
29733;BME280;16643;43.158;25.302;2023-04-20T01:21:57;97609.75;;;10.91;100.00
29733;BME280;16643;43.158;25.302;2023-04-20T01:24:23;97623.38;;;10.96;100.00
29733;BME280;16643;43.158;25.302;2023-04-20T01:26:48;97619.19;;;10.94;99.15
29733;BME280;16643;43.158;25.302;2023-04-20T01:29:14;97618.25;;;10.73;98.79
29733;BME280;16643;43.158;25.302;2023-04-20T01:31:40;97614.81;;;10.94;98.42
29733;BME280;16643;43.158;25.302;2023-04-20T01:34:05;97634.00;;;10.91;98.67
29733;BME280;16643;43.158;25.302;2023-04-20T01:36:34;97603.91;;;10.84;97.99
29733;BME280;16643;43.158;25.302;2023-04-20T01:39:00;97640.56;;;11.00;98.68
29733;BME280;16643;43.158;25.302;2023-04-20T01:41:26;97610.66;;;10.90;98.19
29733;BME280;16643;43.158;25.302;2023-04-20T01:43:51;97603.81;;;10.87;97.35
29733;BME280;16643;43.158;25.302;2023-04-20T01:46:17;97611.66;;;10.86;97.49
29733;BME280;16643;43.158;25.302;2023-04-20T01:48:42;97622.69;;;10.93;98.90
29733;BME280;16643;43.158;25.302;2023-04-20T01:51:08;97593.53;;;10.84;99.14
29733;BME280;16643;43.158;25.302;2023-04-20T01:53:33;97608.41;;;10.81;100.00
29733;BME280;16643;43.158;25.302;2023-04-20T01:55:59;97592.25;;;10.73;99.50
29733;BME280;16643;43.158;25.302;2023-04-20T01:58:25;97617.16;;;10.78;100.00
29733;BME280;16643;43.158;25.302;2023-04-20T02:00:50;97607.09;;;10.71;100.00
29733;BME280;16643;43.158;25.302;2023-04-20T02:03:16;97599.09;;;10.75;100.00
29733;BME280;16643;43.158;25.302;2023-04-20T02:05:42;97605.25;;;10.73;100.00
29733;BME280;16643;43.158;25.302;2023-04-20T02:08:07;97584.09;;;10.60;100.00
29733;BME280;16643;43.158;25.302;2023-04-20T02:10:33;97615.59;;;10.74;99.56
29733;BME280;16643;43.158;25.302;2023-04-20T02:12:59;97564.03;;;10.42;99.14
29733;BME280;16643;43.158;25.302;2023-04-20T02:15:24;97575.31;;;10.41;99.04
29733;BME280;16643;43.158;25.302;2023-04-20T02:17:50;74447.44;;;-142.82;99.04
29733;BME280;16643;43.158;25.302;2023-04-20T02:20:17;97609.53;;;10.29;98.34
29733;BME280;16643;43.158;25.302;2023-04-20T02:22:44;97650.81;;;10.60;99.03
29733;BME280;16643;43.158;25.302;2023-04-20T02:25:09;97595.94;;;10.22;98.45
29733;BME280;16643;43.158;25.302;2023-04-20T02:27:35;97635.25;;;10.36;99.34
29733;BME280;16643;43.158;25.302;2023-04-20T02:30:01;97569.06;;;10.23;98.58
29733;BME280;16643;43.158;25.302;2023-04-20T02:32:28;97588.41;;;10.14;98.65
29733;BME280;16643;43.158;25.302;2023-04-20T02:34:54;97641.78;;;10.23;99.32
29733;BME280;16643;43.158;25.302;2023-04-20T02:37:19;97590.22;;;10.12;99.52
29733;BME280;16643;43.158;25.302;2023-04-20T02:39:45;97597.31;;;10.07;100.00
29733;BME280;16643;43.158;25.302;2023-04-20T02:42:11;97612.03;;;10.07;100.00
29733;BME280;16643;43.158;25.302;2023-04-20T02:44:36;97597.56;;;10.01;99.57
29733;BME280;16643;43.158;25.302;2023-04-20T02:47:02;97580.03;;;9.83;100.00
29733;BME280;16643;43.158;25.302;2023-04-20T02:49:28;97605.44;;;9.98;100.00
29733;BME280;16643;43.158;25.302;2023-04-20T02:51:53;97605.44;;;-142.82;100.00
29733;BME280;16643;43.158;25.302;2023-04-20T02:54:19;97618.84;;;10.11;100.00
29733;BME280;16643;43.158;25.302;2023-04-20T02:56:45;97578.97;;;9.89;100.00
29733;BME280;16643;43.158;25.302;2023-04-20T02:59:10;97582.69;;;9.81;100.00
29733;BME280;16643;43.158;25.302;2023-04-20T03:01:36;97584.13;;;9.90;100.00
29733;BME280;16643;43.158;25.302;2023-04-20T03:04:02;97583.53;;;9.82;100.00
29733;BME280;16643;43.158;25.302;2023-04-20T03:06:28;97599.69;;;9.90;100.00
29733;BME280;16643;43.158;25.302;2023-04-20T03:08:54;97602.94;;;9.95;100.00
29733;BME280;16643;43.158;25.302;2023-04-20T03:11:20;97601.81;;;9.79;100.00
29733;BME280;16643;43.158;25.302;2023-04-20T03:13:46;97566.31;;;9.56;100.00
29733;BME280;16643;43.158;25.302;2023-04-20T03:16:11;97600.28;;;9.73;100.00
29733;BME280;16643;43.158;25.302;2023-04-20T03:18:37;97589.47;;;9.61;100.00
29733;BME280;16643;43.158;25.302;2023-04-20T03:21:03;97587.94;;;9.55;100.00
29733;BME280;16643;43.158;25.302;2023-04-20T03:23:28;97596.69;;;9.53;100.00
29733;BME280;16643;43.158;25.302;2023-04-20T03:25:55;97586.56;;;9.45;100.00
29733;BME280;16643;43.158;25.302;2023-04-20T03:28:21;97587.56;;;9.41;100.00
29733;BME280;16643;43.158;25.302;2023-04-20T03:30:47;97578.31;;;9.34;100.00
29733;BME280;16643;43.158;25.302;2023-04-20T03:33:13;97551.06;;;9.22;100.00
29733;BME280;16643;43.158;25.302;2023-04-20T03:35:38;97575.66;;;9.35;100.00
29733;BME280;16643;43.158;25.302;2023-04-20T03:38:04;97585.97;;;9.37;100.00
29733;BME280;16643;43.158;25.302;2023-04-20T03:40:30;97583.56;;;9.32;100.00
29733;BME280;16643;43.158;25.302;2023-04-20T03:42:56;97600.34;;;9.47;100.00
29733;BME280;16643;43.158;25.302;2023-04-20T03:45:21;97628.81;;;9.48;100.00
29733;BME280;16643;43.158;25.302;2023-04-20T03:47:47;97620.06;;;9.51;100.00
29733;BME280;16643;43.158;25.302;2023-04-20T03:50:13;97599.63;;;9.42;100.00
29733;BME280;16643;43.158;25.302;2023-04-20T03:52:38;97617.03;;;9.38;100.00
29733;BME280;16643;43.158;25.302;2023-04-20T03:55:04;97585.38;;;9.29;100.00
29733;BME280;16643;43.158;25.302;2023-04-20T03:57:32;97631.97;;;9.58;100.00
29733;BME280;16643;43.158;25.302;2023-04-20T03:59:57;97623.38;;;9.56;100.00
29733;BME280;16643;43.158;25.302;2023-04-20T04:02:23;97512.63;;;9.33;100.00
29733;BME280;16643;43.158;25.302;2023-04-20T04:04:49;97587.41;;;9.21;100.00
29733;BME280;16643;43.158;25.302;2023-04-20T04:07:14;97622.34;;;9.35;100.00
29733;BME280;16643;43.158;25.302;2023-04-20T04:09:40;97586.22;;;9.29;100.00
29733;BME280;16643;43.158;25.302;2023-04-20T04:12:06;97579.00;;;9.39;100.00
29733;BME280;16643;43.158;25.302;2023-04-20T04:14:33;97625.97;;;9.30;100.00
29733;BME280;16643;43.158;25.302;2023-04-20T04:16:59;97613.59;;;9.38;100.00
29733;BME280;16643;43.158;25.302;2023-04-20T04:19:24;97585.59;;;9.23;100.00
29733;BME280;16643;43.158;25.302;2023-04-20T04:21:50;97636.53;;;9.50;100.00
29733;BME280;16643;43.158;25.302;2023-04-20T04:24:16;97636.88;;;9.66;100.00
29733;BME280;16643;43.158;25.302;2023-04-20T04:26:42;97611.88;;;9.63;100.00
29733;BME280;16643;43.158;25.302;2023-04-20T04:29:07;97596.81;;;9.48;100.00
29733;BME280;16643;43.158;25.302;2023-04-20T04:31:34;97636.25;;;9.59;100.00
29733;BME280;16643;43.158;25.302;2023-04-20T04:34:00;97620.50;;;9.64;100.00
29733;BME280;16643;43.158;25.302;2023-04-20T04:36:26;97629.75;;;9.71;100.00
29733;BME280;16643;43.158;25.302;2023-04-20T04:38:52;97628.81;;;9.73;100.00
29733;BME280;16643;43.158;25.302;2023-04-20T04:41:18;97649.56;;;9.73;100.00
29733;BME280;16643;43.158;25.302;2023-04-20T04:43:44;97616.88;;;9.69;100.00
29733;BME280;16643;43.158;25.302;2023-04-20T04:46:10;97632.00;;;9.81;100.00
29733;BME280;16643;43.158;25.302;2023-04-20T04:48:39;97646.88;;;9.76;100.00
29733;BME280;16643;43.158;25.302;2023-04-20T04:51:07;97625.31;;;9.74;100.00
29733;BME280;16643;43.158;25.302;2023-04-20T04:53:33;97614.94;;;9.74;100.00
29733;BME280;16643;43.158;25.302;2023-04-20T04:55:59;97628.38;;;9.86;100.00
29733;BME280;16643;43.158;25.302;2023-04-20T04:58:25;97622.31;;;9.87;100.00
29733;BME280;16643;43.158;25.302;2023-04-20T05:00:51;97609.75;;;9.74;100.00
29733;BME280;16643;43.158;25.302;2023-04-20T05:03:16;97609.75;;;-142.82;100.00
29733;BME280;16643;43.158;25.302;2023-04-20T05:05:42;97635.53;;;10.04;100.00
29733;BME280;16643;43.158;25.302;2023-04-20T05:08:09;97632.09;;;10.03;100.00
29733;BME280;16643;43.158;25.302;2023-04-20T05:10:35;97621.91;;;9.97;100.00
29733;BME280;16643;43.158;25.302;2023-04-20T05:13:01;97560.81;;;9.89;100.00
29733;BME280;16643;43.158;25.302;2023-04-20T05:15:26;97604.50;;;10.01;100.00
29733;BME280;16643;43.158;25.302;2023-04-20T05:17:52;97608.72;;;10.03;100.00
29733;BME280;16643;43.158;25.302;2023-04-20T05:20:18;97635.50;;;10.29;100.00
29733;BME280;16643;43.158;25.302;2023-04-20T05:22:45;97608.28;;;10.15;100.00
29733;BME280;16643;43.158;25.302;2023-04-20T05:25:11;97619.81;;;10.32;100.00
29733;BME280;16643;43.158;25.302;2023-04-20T05:27:36;97641.16;;;10.40;100.00
29733;BME280;16643;43.158;25.302;2023-04-20T05:30:03;97605.53;;;10.43;100.00
29733;BME280;16643;43.158;25.302;2023-04-20T05:32:29;97632.28;;;10.69;100.00
29733;BME280;16643;43.158;25.302;2023-04-20T05:34:54;97622.91;;;10.86;100.00
29733;BME280;16643;43.158;25.302;2023-04-20T05:37:20;97625.50;;;11.08;98.24
29733;BME280;16643;43.158;25.302;2023-04-20T05:39:46;97618.78;;;11.24;98.57
29733;BME280;16643;43.158;25.302;2023-04-20T05:42:11;97613.78;;;11.40;97.00
29733;BME280;16643;43.158;25.302;2023-04-20T05:44:37;97633.06;;;11.56;97.51
29733;BME280;16643;43.158;25.302;2023-04-20T05:47:04;97630.56;;;11.75;97.46
29733;BME280;16643;43.158;25.302;2023-04-20T05:49:36;97636.41;;;11.80;94.06
29733;BME280;16643;43.158;25.302;2023-04-20T05:52:02;97658.75;;;12.06;95.22
29733;BME280;16643;43.158;25.302;2023-04-20T05:54:28;97648.81;;;12.14;93.42
29733;BME280;16643;43.158;25.302;2023-04-20T05:56:54;97656.72;;;12.31;94.76
29733;BME280;16643;43.158;25.302;2023-04-20T05:59:20;97647.38;;;12.46;93.74
29733;BME280;16643;43.158;25.302;2023-04-20T06:01:46;97667.88;;;12.54;91.30
29733;BME280;16643;43.158;25.302;2023-04-20T06:04:12;97659.44;;;12.67;92.28
29733;BME280;16643;43.158;25.302;2023-04-20T06:06:37;97648.03;;;12.70;93.41
29733;BME280;16643;43.158;25.302;2023-04-20T06:09:03;97656.09;;;13.01;93.55
29733;BME280;16643;43.158;25.302;2023-04-20T06:11:29;97674.03;;;13.28;92.52
29733;BME280;16643;43.158;25.302;2023-04-20T06:13:55;97647.47;;;13.20;91.38
29733;BME280;16643;43.158;25.302;2023-04-20T06:16:21;97669.53;;;13.49;88.93
29733;BME280;16643;43.158;25.302;2023-04-20T06:18:47;97671.03;;;13.35;89.04
29733;BME280;16643;43.158;25.302;2023-04-20T06:21:13;97641.22;;;13.03;88.92
29733;BME280;16643;43.158;25.302;2023-04-20T06:23:40;97670.56;;;13.27;90.07
29733;BME280;16643;43.158;25.302;2023-04-20T06:26:06;97657.38;;;13.48;89.80
29733;BME280;16643;43.158;25.302;2023-04-20T06:28:34;97663.38;;;13.50;86.95
29733;BME280;16643;43.158;25.302;2023-04-20T06:31:01;97650.66;;;13.61;87.64
29733;BME280;16643;43.158;25.302;2023-04-20T06:33:27;97662.09;;;13.75;88.66
29733;BME280;16643;43.158;25.302;2023-04-20T06:35:52;97642.50;;;13.84;90.48
29733;BME280;16643;43.158;25.302;2023-04-20T06:38:21;97667.88;;;14.32;88.74
29733;BME280;16643;43.158;25.302;2023-04-20T06:40:48;97678.09;;;14.54;86.22
29733;BME280;16643;43.158;25.302;2023-04-20T06:43:14;97666.31;;;14.45;86.08
29733;BME280;16643;43.158;25.302;2023-04-20T06:45:39;97655.53;;;14.51;86.54
29733;BME280;16643;43.158;25.302;2023-04-20T06:48:06;97662.31;;;14.56;85.76
29733;BME280;16643;43.158;25.302;2023-04-20T06:50:31;97656.66;;;14.63;85.71
29733;BME280;16643;43.158;25.302;2023-04-20T06:52:57;97662.59;;;14.67;87.08
29733;BME280;16643;43.158;25.302;2023-04-20T06:55:22;97652.94;;;14.67;86.16
29733;BME280;16643;43.158;25.302;2023-04-20T06:57:48;97669.34;;;14.86;85.86
29733;BME280;16643;43.158;25.302;2023-04-20T07:00:14;97679.66;;;14.89;84.70
29733;BME280;16643;43.158;25.302;2023-04-20T07:02:48;97667.31;;;14.92;83.16
29733;BME280;16643;43.158;25.302;2023-04-20T07:05:14;97661.34;;;14.89;83.01
29733;BME280;16643;43.158;25.302;2023-04-20T07:07:40;97673.31;;;15.09;83.32
29733;BME280;16643;43.158;25.302;2023-04-20T07:10:07;97695.16;;;15.40;82.03
29733;BME280;16643;43.158;25.302;2023-04-20T07:12:34;97647.53;;;15.17;82.73
29733;BME280;16643;43.158;25.302;2023-04-20T07:15:05;97698.53;;;15.42;78.95
29733;BME280;16643;43.158;25.302;2023-04-20T07:17:31;97691.63;;;15.41;82.11
29733;BME280;16643;43.158;25.302;2023-04-20T07:19:57;97692.69;;;15.52;80.69
29733;BME280;16643;43.158;25.302;2023-04-20T07:22:30;97680.31;;;15.56;80.97
29733;BME280;16643;43.158;25.302;2023-04-20T07:24:56;97688.13;;;15.72;80.46
29733;BME280;16643;43.158;25.302;2023-04-20T07:27:21;97673.59;;;15.66;79.67
29733;BME280;16643;43.158;25.302;2023-04-20T07:29:47;97687.03;;;15.76;80.86
29733;BME280;16643;43.158;25.302;2023-04-20T07:32:12;97667.25;;;16.00;79.69
29733;BME280;16643;43.158;25.302;2023-04-20T07:34:39;97694.22;;;16.02;77.09
29733;BME280;16643;43.158;25.302;2023-04-20T07:37:04;97688.56;;;15.94;79.11
29733;BME280;16643;43.158;25.302;2023-04-20T07:39:30;97661.69;;;15.90;79.83
29733;BME280;16643;43.158;25.302;2023-04-20T07:41:56;97673.03;;;16.05;76.67
29733;BME280;16643;43.158;25.302;2023-04-20T07:44:22;97659.28;;;16.16;79.39
29733;BME280;16643;43.158;25.302;2023-04-20T07:46:47;97679.72;;;16.11;75.80
29733;BME280;16643;43.158;25.302;2023-04-20T07:49:14;97660.97;;;16.03;77.80
29733;BME280;16643;43.158;25.302;2023-04-20T07:51:40;97674.00;;;16.18;79.17
29733;BME280;16643;43.158;25.302;2023-04-20T07:54:05;97666.63;;;16.25;78.50
29733;BME280;16643;43.158;25.302;2023-04-20T07:56:32;97655.28;;;16.10;78.32
29733;BME280;16643;43.158;25.302;2023-04-20T07:58:58;97682.75;;;16.03;78.29
29733;BME280;16643;43.158;25.302;2023-04-20T08:01:24;97661.03;;;15.87;77.39
29733;BME280;16643;43.158;25.302;2023-04-20T08:03:50;97678.53;;;15.86;77.25
29733;BME280;16643;43.158;25.302;2023-04-20T08:06:16;97672.06;;;15.92;79.25
29733;BME280;16643;43.158;25.302;2023-04-20T08:08:42;97665.16;;;15.91;80.17
29733;BME280;16643;43.158;25.302;2023-04-20T08:11:07;97667.66;;;15.78;81.21
29733;BME280;16643;43.158;25.302;2023-04-20T08:13:34;97672.31;;;15.73;80.10
29733;BME280;16643;43.158;25.302;2023-04-20T08:16:00;97668.91;;;15.57;80.39
29733;BME280;16643;43.158;25.302;2023-04-20T08:18:26;97652.03;;;15.77;80.05
29733;BME280;16643;43.158;25.302;2023-04-20T08:20:52;97655.28;;;16.24;81.63
29733;BME280;16643;43.158;25.302;2023-04-20T08:23:17;97686.50;;;16.43;76.25
29733;BME280;16643;43.158;25.302;2023-04-20T08:25:43;97652.66;;;16.24;81.03
29733;BME280;16643;43.158;25.302;2023-04-20T08:28:08;97639.16;;;16.30;77.87
29733;BME280;16643;43.158;25.302;2023-04-20T08:30:34;97665.03;;;16.51;78.33
29733;BME280;16643;43.158;25.302;2023-04-20T08:33:00;97642.66;;;16.45;78.71
29733;BME280;16643;43.158;25.302;2023-04-20T08:35:25;97654.06;;;16.73;76.15
29733;BME280;16643;43.158;25.302;2023-04-20T08:37:51;97656.59;;;16.88;77.10
29733;BME280;16643;43.158;25.302;2023-04-20T08:40:17;97658.56;;;16.85;78.12
29733;BME280;16643;43.158;25.302;2023-04-20T08:42:46;97662.09;;;16.98;75.79
29733;BME280;16643;43.158;25.302;2023-04-20T08:45:11;97671.66;;;17.13;77.03
29733;BME280;16643;43.158;25.302;2023-04-20T08:47:38;97651.66;;;16.69;76.68
29733;BME280;16643;43.158;25.302;2023-04-20T08:50:05;97649.50;;;16.76;76.62
29733;BME280;16643;43.158;25.302;2023-04-20T08:52:31;97673.38;;;16.86;75.85
29733;BME280;16643;43.158;25.302;2023-04-20T08:54:59;97630.66;;;16.69;75.38
29733;BME280;16643;43.158;25.302;2023-04-20T08:57:25;97649.31;;;16.79;76.55
29733;BME280;16643;43.158;25.302;2023-04-20T08:59:51;97614.06;;;16.55;75.67
29733;BME280;16643;43.158;25.302;2023-04-20T09:02:17;97646.88;;;16.48;75.81
29733;BME280;16643;43.158;25.302;2023-04-20T09:04:42;97661.81;;;16.60;75.05
29733;BME280;16643;43.158;25.302;2023-04-20T09:07:19;97653.31;;;16.14;76.61
29733;BME280;16643;43.158;25.302;2023-04-20T09:10:03;97665.59;;;16.13;77.54
29733;BME280;16643;43.158;25.302;2023-04-20T09:12:39;97625.09;;;16.17;80.36
29733;BME280;16643;43.158;25.302;2023-04-20T09:15:06;97643.41;;;16.47;79.12
29733;BME280;16643;43.158;25.302;2023-04-20T09:17:33;97666.16;;;16.75;79.88
29733;BME280;16643;43.158;25.302;2023-04-20T09:19:59;97651.44;;;16.58;76.79
29733;BME280;16643;43.158;25.302;2023-04-20T09:22:32;97643.31;;;16.34;75.96
29733;BME280;16643;43.158;25.302;2023-04-20T09:24:59;97642.34;;;16.21;78.81
29733;BME280;16643;43.158;25.302;2023-04-20T09:27:25;97634.75;;;16.03;76.82
29733;BME280;16643;43.158;25.302;2023-04-20T09:29:59;97676.56;;;16.34;78.91
29733;BME280;16643;43.158;25.302;2023-04-20T09:32:26;97651.75;;;16.68;78.87
29733;BME280;16643;43.158;25.302;2023-04-20T09:34:53;97642.88;;;16.97;73.69
29733;BME280;16643;43.158;25.302;2023-04-20T09:37:19;97653.56;;;16.94;75.38
29733;BME280;16643;43.158;25.302;2023-04-20T09:39:45;97635.16;;;17.09;79.59
29733;BME280;16643;43.158;25.302;2023-04-20T09:42:12;97656.78;;;17.80;77.57
29733;BME280;16643;43.158;25.302;2023-04-20T09:44:38;97623.69;;;17.63;73.77
29733;BME280;16643;43.158;25.302;2023-04-20T09:47:05;97640.72;;;17.31;72.98
29733;BME280;16643;43.158;25.302;2023-04-20T09:49:32;97657.19;;;17.47;73.71
29733;BME280;16643;43.158;25.302;2023-04-20T09:52:01;97661.69;;;17.72;72.38
29733;BME280;16643;43.158;25.302;2023-04-20T09:54:27;97654.47;;;17.88;71.62
29733;BME280;16643;43.158;25.302;2023-04-20T09:56:53;97666.28;;;18.21;71.75
29733;BME280;16643;43.158;25.302;2023-04-20T09:59:20;97661.75;;;18.23;74.39
29733;BME280;16643;43.158;25.302;2023-04-20T10:01:46;97656.50;;;18.23;70.37
29733;BME280;16643;43.158;25.302;2023-04-20T10:04:12;97640.91;;;18.07;72.93
29733;BME280;16643;43.158;25.302;2023-04-20T10:06:39;97639.47;;;18.28;71.77
29733;BME280;16643;43.158;25.302;2023-04-20T10:09:21;97612.25;;;17.64;71.63
29733;BME280;16643;43.158;25.302;2023-04-20T10:11:47;97644.47;;;17.54;72.79
29733;BME280;16643;43.158;25.302;2023-04-20T10:14:21;97636.50;;;17.55;72.03
29733;BME280;16643;43.158;25.302;2023-04-20T10:17:05;97632.03;;;17.70;70.19
29733;BME280;16643;43.158;25.302;2023-04-20T10:19:41;97627.63;;;17.70;70.57
29733;BME280;16643;43.158;25.302;2023-04-20T10:22:09;97642.69;;;17.54;70.35
29733;BME280;16643;43.158;25.302;2023-04-20T10:24:35;97639.97;;;17.56;69.96
29733;BME280;16643;43.158;25.302;2023-04-20T10:27:20;97634.28;;;17.62;71.58
29733;BME280;16643;43.158;25.302;2023-04-20T10:29:46;97631.88;;;17.59;72.22
29733;BME280;16643;43.158;25.302;2023-04-20T10:32:26;97636.97;;;17.35;67.29
29733;BME280;16643;43.158;25.302;2023-04-20T10:35:10;97630.53;;;17.39;72.05
29733;BME280;16643;43.158;25.302;2023-04-20T10:37:49;97630.75;;;17.63;72.30
29733;BME280;16643;43.158;25.302;2023-04-20T10:40:16;97637.00;;;17.48;71.89
29733;BME280;16643;43.158;25.302;2023-04-20T10:42:45;97635.47;;;17.04;77.06
29733;BME280;16643;43.158;25.302;2023-04-20T10:45:11;97615.00;;;16.68;75.14
29733;BME280;16643;43.158;25.302;2023-04-20T10:47:37;97637.81;;;16.94;75.27
29733;BME280;16643;43.158;25.302;2023-04-20T10:50:09;97641.25;;;17.09;74.80
29733;BME280;16643;43.158;25.302;2023-04-20T10:52:36;97614.66;;;17.01;73.80
29733;BME280;16643;43.158;25.302;2023-04-20T10:55:03;97630.56;;;17.12;75.98
29733;BME280;16643;43.158;25.302;2023-04-20T10:57:29;97630.66;;;17.11;71.94
29733;BME280;16643;43.158;25.302;2023-04-20T10:59:55;97617.81;;;17.06;72.86
29733;BME280;16643;43.158;25.302;2023-04-20T11:02:21;97623.66;;;16.97;69.41
29733;BME280;16643;43.158;25.302;2023-04-20T11:04:46;97637.09;;;17.19;72.73
29733;BME280;16643;43.158;25.302;2023-04-20T11:07:12;97620.53;;;17.04;71.61
29733;BME280;16643;43.158;25.302;2023-04-20T11:09:38;97622.88;;;17.09;70.80
29733;BME280;16643;43.158;25.302;2023-04-20T11:12:08;97638.91;;;17.04;73.11
29733;BME280;16643;43.158;25.302;2023-04-20T11:14:56;97635.78;;;16.85;73.06
29733;BME280;16643;43.158;25.302;2023-04-20T11:17:34;97613.69;;;16.47;74.46
29733;BME280;16643;43.158;25.302;2023-04-20T11:20:06;97628.03;;;16.41;76.34
29733;BME280;16643;43.158;25.302;2023-04-20T11:22:37;97629.03;;;16.53;76.68
29733;BME280;16643;43.158;25.302;2023-04-20T11:25:11;97620.06;;;16.43;75.96
29733;BME280;16643;43.158;25.302;2023-04-20T11:27:37;97603.03;;;16.36;78.70
29733;BME280;16643;43.158;25.302;2023-04-20T11:30:05;97630.81;;;16.52;78.65
29733;BME280;16643;43.158;25.302;2023-04-20T11:32:33;97628.94;;;16.54;78.77
29733;BME280;16643;43.158;25.302;2023-04-20T11:35:07;97622.78;;;16.55;76.47
29733;BME280;16643;43.158;25.302;2023-04-20T11:37:45;97597.47;;;16.54;77.87
29733;BME280;16643;43.158;25.302;2023-04-20T11:40:11;97601.88;;;16.68;75.48
29733;BME280;16643;43.158;25.302;2023-04-20T11:42:37;97595.22;;;16.62;76.25
29733;BME280;16643;43.158;25.302;2023-04-20T11:45:04;97591.16;;;16.85;74.82
29733;BME280;16643;43.158;25.302;2023-04-20T11:47:30;97592.28;;;17.08;75.46
29733;BME280;16643;43.158;25.302;2023-04-20T11:49:55;97590.19;;;17.40;75.55
29733;BME280;16643;43.158;25.302;2023-04-20T11:52:21;97586.19;;;17.74;75.62
29733;BME280;16643;43.158;25.302;2023-04-20T11:54:46;97575.56;;;17.88;71.13
29733;BME280;16643;43.158;25.302;2023-04-20T11:57:12;97586.19;;;17.99;72.36
29733;BME280;16643;43.158;25.302;2023-04-20T11:59:37;97590.41;;;17.89;69.76
29733;BME280;16643;43.158;25.302;2023-04-20T12:02:03;97581.25;;;17.69;71.51
29733;BME280;16643;43.158;25.302;2023-04-20T12:04:30;97593.16;;;18.13;72.78
29733;BME280;16643;43.158;25.302;2023-04-20T12:06:57;97586.03;;;18.51;68.02
29733;BME280;16643;43.158;25.302;2023-04-20T12:09:24;97585.56;;;18.96;66.90
29733;BME280;16643;43.158;25.302;2023-04-20T12:11:50;97548.41;;;18.99;68.10
29733;BME280;16643;43.158;25.302;2023-04-20T12:14:16;97567.41;;;19.39;64.65
29733;BME280;16643;43.158;25.302;2023-04-20T12:16:41;97576.53;;;19.70;65.57
29733;BME280;16643;43.158;25.302;2023-04-20T12:19:07;97569.34;;;19.48;64.47
29733;BME280;16643;43.158;25.302;2023-04-20T12:21:34;97564.88;;;19.61;65.70
29733;BME280;16643;43.158;25.302;2023-04-20T12:23:59;97557.81;;;19.38;63.61
29733;BME280;16643;43.158;25.302;2023-04-20T12:26:25;97541.72;;;19.53;64.71
29733;BME280;16643;43.158;25.302;2023-04-20T12:28:51;97552.91;;;19.44;63.69
29733;BME280;16643;43.158;25.302;2023-04-20T12:31:18;97543.25;;;19.21;62.12
29733;BME280;16643;43.158;25.302;2023-04-20T12:33:43;97536.31;;;18.96;60.52
29733;BME280;16643;43.158;25.302;2023-04-20T12:36:12;97526.50;;;18.74;63.23
29733;BME280;16643;43.158;25.302;2023-04-20T12:38:38;97535.25;;;18.75;63.29
29733;BME280;16643;43.158;25.302;2023-04-20T12:41:03;97526.00;;;18.69;64.03
29733;BME280;16643;43.158;25.302;2023-04-20T12:43:29;97537.66;;;18.78;63.08
29733;BME280;16643;43.158;25.302;2023-04-20T12:45:55;97544.38;;;18.45;63.89